Terminal Aerodrome Forecast
Issued by NWS

Home | Current Version | Previous Version | Graphics & Text | Print | Product List | Glossary On
Versions: 1 2 3 4 5 6 7 8 9 10 11 12 13 14 15
000
FTUS43 KICT 282339
TAFHUT
TAF
KHUT 282339Z 2900/2924 30010KT P6SM SCT250
     FM290600 35014KT P6SM SCT250
     FM291200 35016G23KT P6SM BKN035
     FM291400 35023G30KT P6SM BKN035
     FM292000 35015G22KT P6SM SCT035=

USA.gov is the U.S. government's official web portal to all federal, state and local government web resources and services.